createdAt,value
2022-09-11T00:00:09.201Z,98.07
2022-09-11T00:01:09.189Z,97.91
2022-09-11T00:02:09.213Z,98.11
2022-09-11T00:03:09.159Z,98.11
2022-09-11T00:04:09.136Z,98.16
2022-09-11T00:05:09.128Z,98.32
2022-09-11T00:06:09.100Z,98.41
2022-09-11T00:07:09.090Z,98.41
2022-09-11T00:08:09.083Z,98.41
2022-09-11T00:09:09.071Z,98.52
2022-09-11T00:10:09.051Z,98.41
2022-09-11T00:11:09.031Z,98.41
2022-09-11T00:12:09.021Z,98.32
2022-09-11T00:13:09.003Z,98.16
2022-09-11T00:14:08.992Z,98.11
2022-09-11T00:15:08.990Z,97.91
2022-09-11T00:16:09.010Z,98.01
2022-09-11T00:17:08.959Z,97.91
2022-09-11T00:18:08.943Z,98.11
2022-09-11T00:19:08.924Z,98.01
2022-09-11T00:20:08.924Z,98.11
2022-09-11T00:21:08.903Z,98.01
2022-09-11T00:22:08.894Z,98.11
2022-09-11T00:23:08.874Z,98.11
2022-09-11T00:24:08.864Z,98.11
2022-09-11T00:25:08.855Z,98.11
2022-09-11T00:26:08.850Z,98.01
2022-09-11T00:27:08.825Z,98.21
2022-09-11T00:28:08.818Z,98.21
2022-09-11T00:29:08.806Z,98.21
2022-09-11T00:30:08.796Z,98.21
2022-09-11T00:31:08.801Z,98.01
2022-09-11T00:32:08.765Z,98.01
2022-09-11T00:33:08.749Z,97.80
2022-09-11T00:34:08.733Z,97.71
2022-09-11T00:35:08.727Z,97.91
2022-09-11T00:36:08.705Z,97.80
2022-09-11T00:37:08.689Z,97.80
2022-09-11T00:38:08.719Z,98.01
2022-09-11T00:39:08.659Z,98.01
2022-09-11T00:40:08.684Z,98.01
2022-09-11T00:41:08.640Z,97.91
2022-09-11T00:42:08.627Z,97.91
2022-09-11T00:43:08.621Z,98.01
2022-09-11T00:44:08.600Z,98.21
2022-09-11T00:45:08.592Z,98.52
2022-09-11T00:46:08.605Z,98.41
2022-09-11T00:47:08.561Z,98.27
2022-09-11T00:48:08.552Z,98.41
2022-09-11T00:49:08.534Z,98.32
2022-09-11T00:50:08.532Z,98.11
2022-09-11T00:51:08.508Z,98.07
2022-09-11T00:52:08.508Z,97.96
2022-09-11T00:53:08.483Z,97.96
2022-09-11T00:54:08.470Z,98.07
2022-09-11T00:55:08.463Z,97.76
2022-09-11T00:56:08.466Z,97.86
2022-09-11T00:57:08.425Z,98.16
2022-09-11T00:58:08.418Z,97.96
2022-09-11T00:59:08.406Z,97.76
2022-09-11T01:00:08.529Z,97.66
2022-09-11T01:01:08.501Z,97.56
2022-09-11T01:02:08.473Z,97.56
2022-09-11T01:03:08.346Z,97.56
2022-09-11T01:04:08.337Z,97.56
2022-09-11T01:05:08.341Z,97.86
2022-09-11T01:06:08.321Z,97.86
2022-09-11T01:07:08.298Z,97.76
2022-09-11T01:08:08.300Z,97.96
2022-09-11T01:09:08.268Z,98.27
2022-09-11T01:10:08.268Z,97.96
2022-09-11T01:11:08.239Z,97.66
2022-09-11T01:12:08.232Z,97.45
2022-09-11T01:13:08.219Z,97.31
2022-09-11T01:14:08.217Z,97.11
2022-09-11T01:15:08.201Z,96.80
2022-09-11T01:16:08.259Z,96.90
2022-09-11T01:17:08.161Z,96.80
2022-09-11T01:18:08.157Z,96.80
2022-09-11T01:19:08.141Z,96.90
2022-09-11T01:20:08.142Z,96.80
2022-09-11T01:21:08.114Z,96.80
2022-09-11T01:22:08.102Z,96.60
2022-09-11T01:23:08.083Z,96.50
2022-09-11T01:24:08.072Z,96.39
2022-09-11T01:25:08.073Z,96.30
2022-09-11T01:26:08.055Z,96.09
2022-09-11T01:27:08.035Z,96.14
2022-09-11T01:28:08.024Z,96.30
2022-09-11T01:29:08.013Z,96.30
2022-09-11T01:30:11.470Z,96.70
2022-09-11T01:31:08.024Z,96.80
2022-09-11T01:32:07.976Z,96.90
2022-09-11T01:33:07.956Z,96.70
2022-09-11T01:34:07.956Z,96.80
2022-09-11T01:36:17.136Z,97.00
2022-09-11T01:37:17.123Z,97.20
2022-09-11T01:38:17.118Z,97.00
2022-09-11T01:39:17.103Z,97.31
2022-09-11T01:40:17.100Z,97.51
2022-09-11T01:41:17.077Z,97.81
2022-09-11T01:42:17.058Z,98.02
2022-09-11T01:43:17.039Z,98.12
2022-09-11T01:44:17.028Z,98.07
2022-09-11T01:45:17.010Z,98.12
2022-09-11T01:46:17.001Z,98.16
2022-09-11T01:47:16.990Z,98.16
2022-09-11T01:48:16.971Z,98.16
2022-09-11T01:49:16.979Z,97.92
2022-09-11T01:50:16.941Z,97.66
2022-09-11T01:51:16.940Z,98.22
2022-09-11T01:52:16.914Z,98.47
2022-09-11T01:53:16.911Z,98.83
2022-09-11T01:54:16.902Z,98.52
2022-09-11T01:55:16.882Z,98.63
2022-09-11T01:56:16.862Z,98.43
2022-09-11T01:57:16.852Z,97.92
2022-09-11T01:58:16.842Z,98.32
2022-09-11T01:59:16.833Z,98.43
2022-09-11T02:00:16.813Z,98.22
2022-09-11T02:01:16.804Z,98.12
2022-09-11T02:02:16.881Z,97.81
2022-09-11T02:03:16.775Z,97.61
2022-09-11T02:04:16.775Z,97.71
2022-09-11T02:05:16.744Z,97.61
2022-09-11T02:06:16.737Z,97.41
2022-09-11T02:07:16.736Z,97.51
2022-09-11T02:08:16.706Z,98.22
2022-09-11T02:09:16.717Z,98.63
2022-09-11T02:10:16.677Z,98.52
2022-09-11T02:11:16.667Z,98.63
2022-09-11T02:12:16.655Z,98.32
2022-09-11T02:13:16.639Z,98.02
2022-09-11T02:14:16.638Z,97.81
2022-09-11T02:15:16.608Z,98.22
2022-09-11T02:16:16.649Z,97.87
2022-09-11T02:17:16.588Z,97.47
2022-09-11T02:18:16.579Z,97.36
2022-09-11T02:19:16.588Z,97.77
2022-09-11T02:20:16.550Z,97.56
2022-09-11T02:21:17.480Z,97.16
2022-09-11T02:22:16.520Z,96.96
2022-09-11T02:23:16.508Z,97.16
2022-09-11T02:24:16.502Z,97.56
2022-09-11T02:25:16.480Z,97.67
2022-09-11T02:26:16.461Z,97.47
2022-09-11T02:27:16.451Z,97.16
2022-09-11T02:28:16.431Z,97.56
2022-09-11T02:29:16.432Z,97.36
2022-09-11T02:30:16.413Z,97.56
2022-09-11T02:31:16.422Z,97.87
2022-09-11T02:32:16.383Z,97.87
2022-09-11T02:33:16.373Z,97.87
2022-09-11T02:34:16.364Z,97.56
2022-09-11T02:35:16.376Z,97.56
2022-09-11T02:36:16.334Z,97.47
2022-09-11T02:37:16.325Z,97.31
2022-09-11T02:38:16.314Z,97.20
2022-09-11T02:39:16.307Z,97.16
2022-09-11T02:40:16.333Z,97.67
2022-09-11T02:41:16.276Z,97.51
2022-09-11T02:42:16.274Z,98.02
2022-09-11T02:43:16.268Z,98.02
2022-09-11T02:44:16.405Z,97.51
2022-09-11T02:45:16.227Z,97.61
2022-09-11T02:46:16.227Z,97.81
2022-09-11T02:47:16.197Z,97.71
2022-09-11T02:48:16.178Z,97.61
2022-09-11T02:49:16.176Z,97.51
2022-09-11T02:50:16.150Z,97.00
2022-09-11T02:51:16.139Z,97.11
2022-09-11T02:52:16.120Z,97.31
2022-09-11T02:53:16.109Z,97.41
2022-09-11T02:54:16.113Z,97.31
2022-09-11T02:55:16.089Z,97.31
2022-09-11T02:56:16.071Z,97.31
2022-09-11T02:57:16.061Z,97.11
2022-09-11T02:58:16.050Z,97.31
2022-09-11T02:59:16.041Z,97.61
2022-09-11T03:00:16.023Z,97.35
2022-09-11T03:01:16.065Z,97.61
2022-09-11T03:02:16.030Z,97.76
2022-09-11T03:03:15.992Z,97.45
2022-09-11T03:04:15.979Z,97.15
2022-09-11T03:05:15.964Z,97.25
2022-09-11T03:06:15.943Z,97.25
2022-09-11T03:07:15.940Z,97.96
2022-09-11T03:08:15.914Z,98.01
2022-09-11T03:09:15.914Z,98.52
2022-09-11T03:10:15.886Z,98.62
2022-09-11T03:11:15.875Z,98.52
2022-09-11T03:12:15.865Z,98.21
2022-09-11T03:13:15.885Z,98.21
2022-09-11T03:14:16.116Z,98.32
2022-09-11T03:15:15.826Z,98.72
2022-09-11T03:16:15.844Z,99.38
2022-09-11T03:17:15.815Z,99.58
2022-09-11T03:18:15.802Z,99.48
2022-09-11T03:19:15.777Z,99.58
2022-09-11T03:20:15.757Z,99.48
2022-09-11T03:21:15.755Z,99.58
2022-09-11T03:22:15.739Z,99.68
2022-09-11T03:23:15.736Z,99.99
2022-09-11T03:24:15.708Z,99.99
2022-09-11T03:25:15.698Z,99.99
2022-09-11T03:26:15.679Z,99.99
2022-09-11T03:27:15.669Z,99.99
2022-09-11T03:28:15.660Z,99.99
2022-09-11T03:29:15.650Z,99.78
2022-09-11T03:30:15.630Z,99.78
2022-09-11T03:31:15.659Z,99.88
2022-09-11T03:32:15.597Z,99.99
2022-09-11T03:33:15.611Z,99.99
2022-09-11T03:34:15.581Z,99.99
2022-09-11T03:35:15.561Z,99.99
2022-09-11T03:36:15.552Z,99.73
2022-09-11T03:37:15.533Z,99.93
2022-09-11T03:38:15.534Z,99.83
2022-09-11T03:39:15.504Z,99.73
2022-09-11T03:40:15.571Z,99.63
2022-09-11T03:41:15.492Z,99.52
2022-09-11T03:42:15.483Z,99.52
2022-09-11T03:43:15.464Z,99.83
2022-09-11T03:44:15.474Z,99.73
2022-09-11T03:45:15.435Z,99.93
2022-09-11T03:46:15.425Z,99.99
2022-09-11T03:47:15.405Z,99.99
2022-09-11T03:48:15.402Z,99.99
2022-09-11T03:49:15.377Z,99.99
2022-09-11T03:50:15.367Z,99.99
2022-09-11T03:51:15.380Z,99.99
2022-09-11T03:52:15.339Z,99.99
2022-09-11T03:53:15.337Z,99.99
2022-09-11T03:54:15.328Z,99.99
2022-09-11T03:55:15.299Z,99.99
2022-09-11T03:56:15.291Z,99.99
2022-09-11T03:57:15.279Z,99.99
2022-09-11T03:58:15.268Z,99.99
2022-09-11T03:59:15.256Z,99.99
2022-09-11T04:00:15.254Z,99.99
2022-09-11T04:01:15.288Z,99.99
2022-09-11T04:02:15.228Z,99.99
2022-09-11T04:03:15.212Z,99.99
2022-09-11T04:04:15.196Z,99.99
2022-09-11T04:05:15.169Z,99.99
2022-09-11T04:06:15.161Z,99.99
2022-09-11T04:07:15.151Z,99.99
2022-09-11T04:08:15.142Z,99.99
2022-09-11T04:09:15.112Z,99.99
2022-09-11T04:10:15.118Z,99.99
2022-09-11T04:11:15.082Z,99.99
2022-09-11T04:12:15.082Z,99.99
2022-09-11T04:13:15.073Z,99.99
2022-09-11T04:14:15.057Z,99.99
2022-09-11T04:15:15.036Z,99.99
2022-09-11T04:16:15.104Z,99.99
2022-09-11T04:17:15.024Z,99.99
2022-09-11T04:18:15.004Z,99.99
2022-09-11T04:19:14.994Z,99.99
2022-09-11T04:20:14.975Z,99.99
2022-09-11T04:21:14.964Z,99.99
2022-09-11T04:22:14.953Z,99.99
2022-09-11T04:23:14.966Z,99.99
2022-09-11T04:24:14.922Z,99.99
2022-09-11T04:25:14.897Z,99.99
2022-09-11T04:26:14.896Z,99.99
2022-09-11T04:27:15.825Z,99.99
2022-09-11T04:28:14.878Z,99.99
2022-09-11T04:29:14.847Z,99.99
2022-09-11T04:30:14.838Z,99.99
2022-09-11T04:31:14.866Z,99.99
2022-09-11T04:32:14.819Z,99.99
2022-09-11T04:33:14.809Z,99.99
2022-09-11T04:34:14.788Z,99.99
2022-09-11T04:35:14.768Z,99.99
2022-09-11T04:36:14.760Z,99.99
2022-09-11T04:37:14.740Z,99.99
2022-09-11T04:38:15.699Z,99.99
2022-09-11T04:39:14.711Z,99.99
2022-09-11T04:40:14.731Z,99.99
2022-09-11T04:41:14.687Z,99.99
2022-09-11T04:42:14.682Z,99.99
2022-09-11T04:43:14.671Z,99.99
2022-09-11T04:44:14.652Z,99.99
2022-09-11T04:45:14.642Z,99.99
2022-09-11T04:46:14.629Z,99.99
2022-09-11T04:47:14.612Z,99.99
2022-09-11T04:48:14.613Z,99.99
2022-09-11T04:49:14.584Z,99.99
2022-09-11T04:50:14.583Z,99.99
2022-09-11T04:51:14.554Z,99.99
2022-09-11T04:52:14.555Z,99.99
2022-09-11T04:53:14.534Z,99.99
2022-09-11T04:54:14.523Z,99.99
2022-09-11T04:55:14.506Z,99.99
2022-09-11T04:56:14.495Z,99.99
2022-09-11T04:57:14.487Z,99.99
2022-09-11T04:58:14.466Z,99.99
2022-09-11T04:59:14.456Z,99.99
2022-09-11T05:00:14.446Z,99.99
2022-09-11T05:01:14.449Z,99.99
2022-09-11T05:02:14.454Z,99.99
2022-09-11T05:03:14.407Z,99.99
2022-09-11T05:04:14.409Z,99.99
2022-09-11T05:05:14.377Z,99.99
2022-09-11T05:06:14.372Z,99.99
2022-09-11T05:07:14.359Z,99.99
2022-09-11T05:08:14.339Z,99.99
2022-09-11T05:09:14.330Z,99.99
2022-09-11T05:10:14.309Z,99.99
2022-09-11T05:11:14.303Z,99.99
2022-09-11T05:12:14.290Z,99.99
2022-09-11T05:13:14.270Z,99.99
2022-09-11T05:14:14.260Z,99.99
2022-09-11T05:15:14.251Z,99.99
2022-09-11T05:16:14.271Z,99.99
2022-09-11T05:17:14.221Z,99.99
2022-09-11T05:18:14.204Z,99.99
2022-09-11T05:19:14.195Z,99.99
2022-09-11T05:20:14.173Z,99.99
2022-09-11T05:21:14.173Z,99.99
2022-09-11T05:22:14.162Z,99.99
2022-09-11T05:23:14.141Z,99.99
2022-09-11T05:24:14.124Z,99.99
2022-09-11T05:25:14.114Z,99.99
2022-09-11T05:26:14.100Z,99.99
2022-09-11T05:27:14.098Z,99.99
2022-09-11T05:28:14.071Z,99.99
2022-09-11T05:29:14.062Z,99.99
2022-09-11T05:30:14.055Z,99.99
2022-09-11T05:31:14.101Z,99.99
2022-09-11T05:32:14.026Z,99.99
2022-09-11T05:33:14.006Z,99.99
2022-09-11T05:34:13.996Z,99.99
2022-09-11T05:35:13.985Z,99.99
2022-09-11T05:36:13.967Z,99.99
2022-09-11T05:37:13.967Z,99.99
2022-09-11T05:38:13.944Z,99.99
2022-09-11T05:39:13.935Z,99.99
2022-09-11T05:40:13.948Z,99.99
2022-09-11T05:41:13.908Z,99.99
2022-09-11T05:42:13.898Z,99.99
2022-09-11T05:43:13.876Z,99.99
2022-09-11T05:44:13.869Z,99.99
2022-09-11T05:45:13.850Z,99.99
2022-09-11T05:46:13.843Z,99.99
2022-09-11T05:47:13.839Z,99.99
2022-09-11T05:48:13.810Z,99.99
2022-09-11T05:49:14.740Z,99.99
2022-09-11T05:50:13.810Z,99.99
2022-09-11T05:51:13.772Z,99.99
2022-09-11T05:52:13.775Z,99.99
2022-09-11T05:53:13.773Z,99.99
2022-09-11T05:54:13.732Z,99.99
2022-09-11T05:55:13.720Z,99.91
2022-09-11T05:56:13.712Z,99.99
2022-09-11T05:57:13.703Z,99.99
2022-09-11T05:58:13.674Z,99.91
2022-09-11T05:59:13.665Z,99.80
2022-09-11T06:00:13.654Z,99.91
2022-09-11T06:01:13.692Z,99.99
2022-09-11T06:02:13.706Z,99.91
2022-09-11T06:03:15.442Z,99.70
2022-09-11T06:04:13.599Z,99.80
2022-09-11T06:05:13.586Z,99.60
2022-09-11T06:06:13.577Z,99.60
2022-09-11T06:07:13.558Z,99.46
2022-09-11T06:08:13.548Z,99.66
2022-09-11T06:09:13.526Z,99.66
2022-09-11T06:10:13.518Z,99.55
2022-09-11T06:11:13.498Z,99.96
2022-09-11T06:12:13.497Z,99.99
2022-09-11T06:13:13.468Z,99.96
2022-09-11T06:14:13.465Z,99.61
2022-09-11T06:15:30.261Z,99.41
2022-09-11T06:16:18.011Z,99.41
2022-09-11T06:17:13.430Z,99.51
2022-09-11T06:18:13.409Z,99.41
2022-09-11T06:19:13.389Z,98.80
2022-09-11T06:20:13.380Z,99.01
2022-09-11T06:21:13.401Z,99.01
2022-09-11T06:22:13.368Z,99.10
2022-09-11T06:23:13.333Z,98.80
2022-09-11T06:24:13.342Z,99.41
2022-09-11T06:25:13.309Z,99.30
2022-09-11T06:26:13.310Z,99.55
2022-09-11T06:27:13.320Z,99.76
2022-09-11T06:28:13.273Z,99.76
2022-09-11T06:29:13.254Z,99.86
2022-09-11T06:30:13.263Z,99.66
2022-09-11T06:31:13.231Z,99.66
2022-09-11T06:32:13.245Z,99.99
2022-09-11T06:33:13.205Z,99.01
2022-09-11T06:34:13.194Z,98.80
2022-09-11T06:35:13.215Z,98.96
2022-09-11T06:36:13.174Z,98.85
2022-09-11T06:37:13.156Z,98.91
2022-09-11T06:38:13.146Z,98.20
2022-09-11T06:39:13.127Z,97.80
2022-09-11T06:40:13.210Z,97.85
2022-09-11T06:41:13.107Z,97.85
2022-09-11T06:42:13.097Z,97.24
2022-09-11T06:43:13.068Z,96.83
2022-09-11T06:44:13.067Z,97.09
2022-09-11T06:45:13.059Z,97.29
2022-09-11T06:46:13.161Z,97.03
2022-09-11T06:47:13.018Z,96.93
2022-09-11T06:48:13.009Z,97.09
2022-09-11T06:49:12.987Z,96.69
2022-09-11T06:50:12.987Z,97.49
2022-09-11T06:51:12.969Z,96.98
2022-09-11T06:52:12.952Z,97.49
2022-09-11T06:53:13.881Z,97.29
2022-09-11T06:54:12.924Z,97.09
2022-09-11T06:55:12.902Z,96.83
2022-09-11T06:56:12.914Z,97.29
2022-09-11T06:57:12.881Z,97.69
2022-09-11T06:58:12.872Z,97.19
2022-09-11T06:59:12.854Z,96.98
2022-09-11T07:00:12.843Z,97.19
2022-09-11T07:01:12.977Z,96.78
2022-09-11T07:02:12.943Z,96.34
2022-09-11T07:03:12.798Z,96.18
2022-09-11T07:04:12.794Z,95.87
2022-09-11T07:05:12.764Z,96.44
2022-09-11T07:06:12.775Z,96.44
2022-09-11T07:07:12.742Z,96.44
2022-09-11T07:08:12.745Z,95.93
2022-09-11T07:09:12.715Z,95.73
2022-09-11T07:10:12.706Z,95.93
2022-09-11T07:11:12.707Z,96.08
2022-09-11T07:12:12.677Z,96.34
2022-09-11T07:13:12.666Z,96.48
2022-09-11T07:14:12.657Z,95.93
2022-09-11T07:15:12.628Z,96.34
2022-09-11T07:16:12.706Z,96.44
2022-09-11T07:17:12.609Z,95.43
2022-09-11T07:18:12.599Z,96.23
2022-09-11T07:19:12.575Z,96.54
2022-09-11T07:20:12.579Z,96.03
2022-09-11T07:21:12.556Z,94.31
2022-09-11T07:22:12.554Z,94.31
2022-09-11T07:23:12.531Z,94.46
2022-09-11T07:24:12.511Z,95.37
2022-09-11T07:25:12.500Z,95.57
2022-09-11T07:26:12.506Z,95.98
2022-09-11T07:27:12.480Z,96.12
2022-09-11T07:28:12.462Z,96.33
2022-09-11T07:29:12.449Z,96.42
2022-09-11T07:30:12.438Z,97.14
2022-09-11T07:31:13.816Z,97.89
2022-09-11T07:32:12.403Z,98.09
2022-09-11T07:33:12.397Z,97.69
2022-09-11T07:34:12.384Z,97.99
2022-09-11T07:35:12.364Z,98.54
2022-09-11T07:36:12.354Z,98.65
2022-09-11T07:37:12.337Z,98.85
2022-09-11T07:38:12.325Z,98.85
2022-09-11T07:39:12.305Z,99.15
2022-09-11T07:40:12.339Z,99.35
2022-09-11T07:41:12.296Z,99.66
2022-09-11T07:42:12.272Z,99.70
2022-09-11T07:43:13.214Z,99.80
2022-09-11T07:44:12.244Z,99.80
2022-09-11T07:45:12.227Z,99.50
2022-09-11T07:46:12.273Z,99.30
2022-09-11T07:47:12.208Z,99.40
2022-09-11T07:48:12.188Z,99.19
2022-09-11T07:49:12.179Z,99.10
2022-09-11T07:50:12.160Z,98.79
2022-09-11T07:51:12.160Z,98.28
2022-09-11T07:52:16.623Z,98.69
2022-09-11T07:53:12.120Z,98.74
2022-09-11T07:54:12.103Z,98.94
2022-09-11T07:55:12.094Z,99.35
2022-09-11T07:56:12.081Z,99.44
2022-09-11T07:57:12.071Z,99.14
2022-09-11T07:58:12.055Z,99.04
2022-09-11T07:59:12.042Z,99.35
2022-09-11T08:00:12.042Z,99.10
2022-09-11T08:01:12.047Z,98.90
2022-09-11T08:02:12.051Z,98.99
2022-09-11T08:03:11.984Z,98.49
2022-09-11T08:04:11.984Z,98.33
2022-09-11T08:05:11.994Z,98.49
2022-09-11T08:06:11.956Z,98.28
2022-09-11T08:07:11.934Z,98.18
2022-09-11T08:08:11.914Z,98.49
2022-09-11T08:09:11.905Z,98.39
2022-09-11T08:10:26.643Z,98.59
2022-09-11T08:11:12.886Z,98.39
2022-09-11T08:12:11.862Z,98.28
2022-09-11T08:13:11.849Z,98.28
2022-09-11T08:14:12.796Z,98.65
2022-09-11T08:15:11.825Z,97.83
2022-09-11T08:16:11.871Z,97.73
2022-09-11T08:17:11.797Z,97.94
2022-09-11T08:18:11.839Z,97.53
2022-09-11T08:19:11.778Z,96.88
2022-09-11T08:20:11.758Z,96.67
2022-09-11T08:21:13.133Z,96.82
2022-09-11T08:22:11.729Z,96.98
2022-09-11T08:23:11.719Z,96.47
2022-09-11T08:24:11.702Z,96.27
2022-09-11T08:25:11.702Z,96.27
2022-09-11T08:26:11.680Z,96.07
2022-09-11T08:27:11.679Z,96.42
2022-09-11T08:28:11.661Z,96.22
2022-09-11T08:29:11.632Z,95.98
2022-09-11T08:30:11.642Z,95.78
2022-09-11T08:31:11.657Z,94.96
2022-09-11T08:32:11.592Z,95.43
2022-09-11T08:33:11.583Z,94.21
2022-09-11T08:34:11.563Z,94.51
2022-09-11T08:35:11.563Z,94.46
2022-09-11T08:36:11.533Z,94.26
2022-09-11T08:37:11.533Z,94.96
2022-09-11T08:38:11.511Z,94.26
2022-09-11T08:39:11.514Z,94.66
2022-09-11T08:40:11.540Z,94.56
2022-09-11T08:41:11.482Z,95.07
2022-09-11T08:42:11.452Z,94.76
2022-09-11T08:43:11.446Z,94.86
2022-09-11T08:44:11.426Z,94.86
2022-09-11T08:45:11.426Z,94.96
2022-09-11T08:46:11.435Z,95.67
2022-09-11T08:47:11.387Z,95.27
2022-09-11T08:48:11.380Z,95.07
2022-09-11T08:49:11.367Z,94.56
2022-09-11T08:50:11.380Z,94.46
2022-09-11T08:51:11.338Z,94.46
2022-09-11T08:52:11.318Z,94.26
2022-09-11T08:53:12.935Z,94.26
2022-09-11T08:54:11.291Z,94.36
2022-09-11T08:55:11.289Z,94.96
2022-09-11T08:56:11.260Z,94.76
2022-09-11T08:57:11.309Z,94.86
2022-09-11T08:58:11.232Z,94.56
2022-09-11T08:59:11.222Z,94.56
2022-09-11T09:00:11.241Z,94.76
2022-09-11T09:01:11.281Z,94.96
2022-09-11T09:02:11.197Z,95.37
2022-09-11T09:03:11.173Z,94.76
2022-09-11T09:04:11.152Z,94.86
2022-09-11T09:05:11.161Z,94.96
2022-09-11T09:06:11.137Z,94.86
2022-09-11T09:07:11.188Z,94.96
2022-09-11T09:08:11.104Z,95.27
2022-09-11T09:09:11.096Z,95.07
2022-09-11T09:10:12.034Z,95.17
2022-09-11T09:11:11.066Z,95.37
2022-09-11T09:12:12.003Z,95.47
2022-09-11T09:13:11.045Z,95.27
2022-09-11T09:14:11.026Z,95.07
2022-09-11T09:15:11.966Z,94.46
2022-09-11T09:16:11.053Z,94.86
2022-09-11T09:17:11.787Z,94.66
2022-09-11T09:18:10.988Z,95.63
2022-09-11T09:19:10.967Z,95.32
2022-09-11T09:20:10.948Z,94.72
2022-09-11T09:21:10.928Z,94.82
2022-09-11T09:22:10.916Z,95.32
2022-09-11T09:23:10.910Z,95.73
2022-09-11T09:24:10.879Z,95.17
2022-09-11T09:25:11.838Z,95.57
2022-09-11T09:26:10.861Z,95.98
2022-09-11T09:27:10.885Z,96.28
2022-09-11T09:28:10.830Z,96.08
2022-09-11T09:29:10.821Z,95.17
2022-09-11T09:30:10.819Z,94.76
2022-09-11T09:31:10.833Z,94.76
2022-09-11T09:32:10.781Z,95.07
2022-09-11T09:33:13.278Z,94.86
2022-09-11T09:34:10.742Z,94.96
2022-09-11T09:35:11.702Z,95.17
2022-09-11T09:36:10.714Z,95.02
2022-09-11T09:37:10.709Z,94.92
2022-09-11T09:38:10.694Z,94.42
2022-09-11T09:39:10.683Z,93.60
2022-09-11T09:40:10.712Z,94.01
2022-09-11T09:41:10.654Z,94.31
2022-09-11T09:42:10.642Z,94.21
2022-09-11T09:43:10.625Z,93.91
2022-09-11T09:44:10.615Z,92.69
2022-09-11T09:45:11.410Z,92.69
2022-09-11T09:46:10.620Z,92.90
2022-09-11T09:47:10.577Z,92.40
2022-09-11T09:48:10.569Z,93.20
2022-09-11T09:49:10.552Z,93.36
2022-09-11T09:50:10.537Z,92.96
2022-09-11T09:51:10.517Z,92.96
2022-09-11T09:52:10.498Z,93.26
2022-09-11T09:53:10.491Z,93.16
2022-09-11T09:54:10.478Z,93.10
2022-09-11T09:55:10.481Z,93.00
2022-09-11T09:56:10.459Z,93.30
2022-09-11T09:57:10.451Z,93.60
2022-09-11T09:58:10.429Z,94.31
2022-09-11T09:59:10.420Z,94.21
2022-09-11T10:00:10.410Z,94.01
2022-09-11T10:01:10.427Z,94.11
2022-09-11T10:02:10.399Z,94.51
2022-09-11T10:03:10.358Z,94.26
2022-09-11T10:04:10.351Z,94.56
2022-09-11T10:05:10.342Z,94.66
2022-09-11T10:06:10.312Z,95.17
2022-09-11T10:07:10.303Z,94.86
2022-09-11T10:08:10.294Z,94.66
2022-09-11T10:09:10.283Z,94.66
2022-09-11T10:10:10.268Z,95.17
2022-09-11T10:11:10.251Z,95.17
2022-09-11T10:12:10.234Z,95.17
2022-09-11T10:13:19.763Z,94.96
2022-09-11T10:14:13.636Z,95.31
2022-09-11T10:15:11.207Z,95.01
2022-09-11T10:16:10.233Z,95.21
2022-09-11T10:17:10.168Z,95.51
2022-09-11T10:18:10.164Z,95.92
2022-09-11T10:19:10.146Z,95.62
2022-09-11T10:20:10.137Z,95.82
2022-09-11T10:21:11.074Z,95.72
2022-09-11T10:22:10.100Z,95.87
2022-09-11T10:23:10.098Z,94.91
2022-09-11T10:24:10.068Z,94.96
2022-09-11T10:25:10.069Z,95.27
2022-09-11T10:26:10.039Z,94.76
2022-09-11T10:27:10.029Z,94.96
2022-09-11T10:28:10.019Z,94.56
2022-09-11T10:29:10.014Z,94.56
2022-09-11T10:30:10.002Z,95.37
2022-09-11T10:31:10.011Z,95.47
2022-09-11T10:32:09.961Z,95.57
2022-09-11T10:33:09.951Z,94.66
2022-09-11T10:34:09.932Z,94.66
2022-09-11T10:35:09.935Z,94.46
2022-09-11T10:36:09.945Z,94.66
2022-09-11T10:37:09.902Z,94.36
2022-09-11T10:38:09.886Z,94.66
2022-09-11T10:39:09.874Z,94.96
2022-09-11T10:40:09.927Z,94.96
2022-09-11T10:41:09.856Z,94.86
2022-09-11T10:42:09.831Z,94.96
2022-09-11T10:43:09.823Z,94.36
2022-09-11T10:44:09.814Z,94.56
2022-09-11T10:45:09.804Z,95.37
2022-09-11T10:46:09.840Z,94.76
2022-09-11T10:47:09.765Z,94.46
2022-09-11T10:48:09.746Z,94.66
2022-09-11T10:49:09.746Z,95.07
2022-09-11T10:50:09.716Z,95.27
2022-09-11T10:51:09.707Z,94.86
2022-09-11T10:52:09.688Z,95.37
2022-09-11T10:53:09.688Z,94.96
2022-09-11T10:54:09.678Z,94.96
2022-09-11T10:55:09.661Z,95.17
2022-09-11T10:56:09.638Z,94.86
2022-09-11T10:57:09.637Z,94.96
2022-09-11T10:58:09.609Z,95.43
2022-09-11T10:59:09.613Z,95.53
2022-09-11T11:00:09.590Z,95.63
2022-09-11T11:01:09.660Z,95.43
2022-09-11T11:02:09.580Z,95.12
2022-09-11T11:03:09.561Z,95.12
2022-09-11T11:04:12.310Z,94.66
2022-09-11T11:05:09.523Z,94.92
2022-09-11T11:06:09.502Z,95.37
2022-09-11T11:07:09.499Z,95.57
2022-09-11T11:08:09.492Z,95.78
2022-09-11T11:09:09.473Z,95.47
2022-09-11T11:10:09.452Z,95.37
2022-09-11T11:11:09.435Z,95.31
2022-09-11T11:12:09.424Z,95.78
2022-09-11T11:13:09.414Z,96.18
2022-09-11T11:14:09.394Z,95.63
2022-09-11T11:15:09.383Z,95.12
2022-09-11T11:16:09.400Z,94.11
2022-09-11T11:17:09.366Z,93.05
2022-09-11T11:18:09.346Z,93.96
2022-09-11T11:19:09.332Z,93.12
2022-09-11T11:20:09.313Z,92.41
2022-09-11T11:21:09.316Z,90.99
2022-09-11T11:22:09.286Z,91.66
2022-09-11T11:23:12.210Z,90.75
2022-09-11T11:24:10.259Z,91.15
2022-09-11T11:25:09.249Z,90.85
2022-09-11T11:26:09.229Z,91.35
2022-09-11T11:27:09.220Z,91.05
2022-09-11T11:28:09.209Z,91.86
2022-09-11T11:29:10.140Z,90.59
2022-09-11T11:30:09.179Z,90.79
2022-09-11T11:31:09.193Z,91.09
2022-09-11T11:32:09.152Z,90.69
2022-09-11T11:33:09.151Z,91.39
2022-09-11T11:34:09.122Z,91.09
2022-09-11T11:35:09.161Z,91.39
2022-09-11T11:36:09.099Z,90.89
2022-09-11T11:37:09.092Z,90.55
2022-09-11T11:38:10.044Z,89.74
2022-09-11T11:39:09.063Z,89.19
2022-09-11T11:40:09.109Z,89.70
2022-09-11T11:41:09.033Z,89.50
2022-09-11T11:42:09.023Z,89.70
2022-09-11T11:43:09.023Z,89.09
2022-09-11T11:44:09.015Z,89.59
2022-09-11T11:45:08.995Z,89.70
2022-09-11T11:46:09.013Z,89.19
2022-09-11T11:47:08.955Z,89.29
2022-09-11T11:48:08.956Z,89.43
2022-09-11T11:49:08.927Z,89.94
2022-09-11T11:50:08.917Z,90.41
2022-09-11T11:51:08.907Z,90.91
2022-09-11T11:52:08.948Z,90.50
2022-09-11T11:53:08.878Z,90.95
2022-09-11T11:54:08.887Z,91.46
2022-09-11T11:55:08.848Z,91.60
2022-09-11T11:56:08.847Z,91.80
2022-09-11T11:57:08.816Z,91.90
2022-09-11T11:58:08.820Z,92.21
2022-09-11T11:59:08.801Z,92.71
2022-09-11T12:00:08.791Z,93.32
2022-09-11T12:01:08.770Z,93.96
2022-09-11T12:02:08.822Z,94.78
2022-09-11T12:03:08.750Z,95.78
2022-09-11T12:04:08.740Z,96.29
2022-09-11T12:05:08.711Z,97.25
2022-09-11T12:06:08.712Z,97.45
2022-09-11T12:07:08.693Z,97.65
2022-09-11T12:08:08.700Z,98.05
2022-09-11T12:09:08.653Z,98.61
2022-09-11T12:10:08.654Z,98.91
2022-09-11T12:11:08.694Z,99.32
2022-09-11T12:12:08.645Z,99.82
2022-09-11T12:13:08.620Z,99.92
2022-09-11T12:14:08.602Z,99.72
2022-09-11T12:15:08.578Z,99.52
2022-09-11T12:16:11.290Z,99.72
2022-09-11T12:17:08.553Z,99.99
2022-09-11T12:18:08.558Z,99.99
2022-09-11T12:19:08.527Z,99.97
2022-09-11T12:20:08.516Z,99.87
2022-09-11T12:21:08.497Z,99.97
2022-09-11T12:22:08.494Z,99.99
2022-09-11T12:23:08.477Z,99.99
2022-09-11T12:24:08.467Z,99.99
2022-09-11T12:25:08.527Z,99.99
2022-09-11T12:26:08.448Z,99.99
2022-09-11T12:27:11.664Z,99.99
2022-09-11T12:28:08.433Z,99.99
2022-09-11T12:29:08.392Z,99.99
2022-09-11T12:30:08.389Z,99.99
2022-09-11T12:31:08.434Z,99.99
2022-09-11T12:32:08.352Z,99.99
2022-09-11T12:33:08.351Z,99.99
2022-09-11T12:34:08.321Z,99.99
2022-09-11T12:35:08.302Z,99.99
2022-09-11T12:36:08.322Z,99.99
2022-09-11T12:37:08.272Z,99.99
2022-09-11T12:38:08.272Z,99.99
2022-09-11T12:39:08.253Z,99.99
2022-09-11T12:40:08.278Z,99.99
2022-09-11T12:41:08.223Z,99.47
2022-09-11T12:42:08.213Z,99.73
2022-09-11T12:43:09.264Z,99.02
2022-09-11T12:44:08.185Z,99.12
2022-09-11T12:45:08.175Z,98.86
2022-09-11T12:46:08.193Z,98.66
2022-09-11T12:47:08.145Z,98.56
2022-09-11T12:48:08.136Z,98.41
2022-09-11T12:49:23.636Z,98.51
2022-09-11T12:50:09.109Z,98.11
2022-09-11T12:51:08.096Z,98.11
2022-09-11T12:52:08.076Z,99.12
2022-09-11T12:53:08.077Z,98.31